METAR Data
IDs: Format: Raw Decoded Include TAF

Data at: 0717 UTC 01 Aug 2021

LFQQ 010700Z AUTO 24009KT 9999 BKN009 BKN013 BKN037 16/15 Q1010 BECMG SCT020